Aérodrome :
LOGIN :

S'inscrire | Disclaimer

   EN    FR    IT 

 










Légende :    VFR   VFR Marginal   IFR   IFR Intensif   IFR Très Intensif
Visi : 
Plafond : 
>= 8 km
>= 3000ft
5 à 8 km
1000 à 3000 ft
1500m à 5 km
500 à 1000 ft
800 à 1500m
200 à 500 ft
< 800m
< 200 ft
Symboles :   Orages  Brouillard  Fortes neiges  Fortes précipitations  Vent > 20 kt
SIGMETs :   Divers  Orages  Givrage  Turbulence  Onde Orograph.  Cendres Volcan.







- Altitude de l'aérodrome : 479 ft
- Code IATA : DOL
- Voir les cartes d'approche


LFRG - Deauville

DERNIER METAR :
  • 181800Z AUTO 20007KT 160V220 9999 FEW017 OVC023 07/05 Q1021 TEMPO 4000 RADZ BKN004

METARs EXPIRÉS :
  • 181730Z AUTO 19007KT 9999 OVC019 08/05 Q1021 TEMPO 4000 RADZ BKN004
  • 181700Z AUTO 19005KT 9999 OVC019 08/05 Q1021 TEMPO 4000 RADZ BKN004
  • 181630Z AUTO 20008KT 9999 OVC018 08/05 Q1021 TEMPO 4000 RADZ BKN004
  • 181600Z AUTO 18007KT 140V220 9999 OVC017 08/05 Q1021 TEMPO 4000 RADZ BKN004
  • 181530Z AUTO 18009KT 150V210 9999 OVC017 08/05 Q1021 TEMPO 4000 RADZ BKN004

TAF TAF LFRG
Valide du 18 à 15h jusqu'au 19 à 00h UTC


181400Z 1815/1824 19006KT 9999 BKN015
TEMPO 1817/1824 4000 RADZ BKN004
ATIS : +33 2 31 65 65 36
Pas de NOTAMs connus pour ce terrain.



MET'MAP, la Météo Aéronautique d'un coup d'oeil ! - Copyright ORBIFLY Décembre 2007 - Disclaimer

ORBIFLY MET'MAP TEAM :

Programmation & Développement : Alexandra Zaïnal
Conception & Développement : Baudouin d'Aumeries
Co-Programmation & Développement : Marc-Olivier Méhu
Soutien technique & logistique : Manuel Goepfert

Contact : metmap@orbifly.com




SOURCES & CREDITS :

   NOAA